Time;durP1;ratioP1;P1;durP2;ratioP2;P2;SDS_P1;SDS_P2;PMS_P1;PMS_P2;Temp;Humidity;BMP_temperature;BMP_pressure;BME280_temperature;BME280_humidity;BME280_pressure;Samples;Min_cycle;Max_cycle;Signal;HPM_P1;HPM_P2
2022/06/27 00:00:47;;;;;;;;;;;16.40;99.90;;;;;;4907055;28;45102;-62
2022/06/27 00:03:15;;;;;;;;;;;16.40;99.90;;;;;;4898689;28;47149;-63
2022/06/27 00:05:41;;;;;;;;;;;16.30;99.90;;;;;;4895593;28;36075;-63
2022/06/27 00:08:08;;;;;;;;;;;16.40;99.90;;;;;;4898617;28;30107;-62
2022/06/27 00:10:35;;;;;;;;;;;16.40;99.90;;;;;;4892053;28;65155;-62
2022/06/27 00:13:01;;;;;;;;;;;16.30;99.90;;;;;;4900245;28;40050;-62
2022/06/27 00:15:28;;;;;;;;;;;16.40;99.90;;;;;;4918649;28;25079;-61
2022/06/27 00:17:57;;;;;;;;;;;16.40;99.90;;;;;;4908917;28;32115;-61
2022/06/27 00:20:24;;;;;;;;;;;16.50;99.90;;;;;;4925582;28;26120;-61
2022/06/27 00:22:51;;;;;;;;;;;16.50;99.90;;;;;;4919176;28;39116;-61
2022/06/27 00:25:18;;;;;;;;;;;16.50;99.90;;;;;;4925770;28;28126;-61
2022/06/27 00:27:45;;;;;;;;;;;16.50;99.90;;;;;;4920078;28;31076;-62
2022/06/27 00:30:11;;;;;;;;;;;16.50;99.90;;;;;;4920482;28;35370;-62
2022/06/27 00:32:38;;;;;;;;;;;16.50;99.90;;;;;;4912186;28;32052;-62
2022/06/27 00:35:06;;;;;;;;;;;16.60;99.90;;;;;;4938788;28;30115;-62
2022/06/27 00:37:33;;;;;;;;;;;16.60;99.90;;;;;;4927321;28;42106;-62
2022/06/27 00:39:59;;;;;;;;;;;16.60;99.90;;;;;;4947004;28;27258;-62
2022/06/27 00:42:26;;;;;;;;;;;16.60;99.90;;;;;;4929404;28;32095;-62
2022/06/27 00:44:53;;;;;;;;;;;16.60;99.90;;;;;;4932397;28;34054;-62
2022/06/27 00:47:20;;;;;;;;;;;16.60;99.90;;;;;;4930815;28;26072;-62
2022/06/27 00:49:47;;;;;;;;;;;16.60;99.90;;;;;;4936180;28;26157;-62
2022/06/27 00:52:14;;;;;;;;;;;16.60;99.90;;;;;;4927594;28;25053;-62
2022/06/27 00:54:42;;;;;;;;;;;16.60;99.90;;;;;;4933067;28;29065;-62
2022/06/27 00:57:10;;;;;;;;;;;16.60;99.90;;;;;;4937385;28;26070;-63
2022/06/27 00:59:37;;;;;;;;;;;16.70;99.90;;;;;;4933102;28;32108;-63
2022/06/27 01:02:04;;;;;;;;;;;16.70;99.90;;;;;;4932367;28;28104;-62
2022/06/27 01:04:32;;;;;;;;;;;16.70;99.90;;;;;;4918344;28;32105;-62
2022/06/27 01:06:58;;;;;;;;;;;16.70;99.90;;;;;;4930605;28;34116;-62
2022/06/27 01:09:25;;;;;;;;;;;16.70;99.90;;;;;;4924275;28;31065;-63
2022/06/27 01:11:52;;;;;;;;;;;16.60;99.90;;;;;;4917706;28;29183;-62
2022/06/27 01:14:19;;;;;;;;;;;16.60;99.90;;;;;;4945969;28;33117;-62
2022/06/27 01:16:46;;;;;;;;;;;16.60;99.90;;;;;;5018756;28;25106;-63
2022/06/27 01:19:14;;;;;;;;;;;16.60;99.90;;;;;;4988254;28;35131;-63
2022/06/27 01:21:45;;;;;;;;;;;16.60;99.90;;;;;;5015366;28;25071;-63
2022/06/27 01:24:12;;;;;;;;;;;16.60;99.90;;;;;;5030762;28;19935;-63
2022/06/27 01:26:40;;;;;;;;;;;16.60;99.90;;;;;;5028987;28;25065;-63
2022/06/27 01:29:07;;;;;;;;;;;16.60;99.90;;;;;;5012993;28;25094;-63
2022/06/27 01:31:35;;;;;;;;;;;16.60;99.90;;;;;;4952874;28;31144;-63
2022/06/27 01:34:02;;;;;;;;;;;16.50;99.90;;;;;;4942557;28;28050;-62
2022/06/27 01:36:43;;;;;;;;;;;16.50;99.90;;;;;;4940448;28;25069;-63
2022/06/27 01:39:12;;;;;;;;;;;16.50;99.90;;;;;;5006245;28;25072;-62
2022/06/27 01:41:39;;;;;;;;;;;16.60;99.90;;;;;;5029588;28;20376;-63
2022/06/27 01:44:05;;;;;;;;;;;16.60;99.90;;;;;;5014050;28;19971;-63
2022/06/27 01:46:39;;;;;;;;;;;16.60;99.90;;;;;;5026325;28;19925;-63
2022/06/27 01:49:05;;;;;;;;;;;16.60;99.90;;;;;;5042933;28;20019;-63
2022/06/27 01:51:32;;;;;;;;;;;16.60;99.90;;;;;;5027432;28;20451;-62
2022/06/27 01:53:59;;;;;;;;;;;16.60;99.90;;;;;;4994175;28;41113;-63
2022/06/27 01:56:25;;;;;;;;;;;16.60;99.90;;;;;;4930078;28;27115;-64
2022/06/27 01:58:57;;;;;;;;;;;16.60;99.90;;;;;;5016830;28;25119;-63
2022/06/27 02:01:25;;;;;;;;;;;16.60;99.90;;;;;;5046636;28;20047;-62
2022/06/27 02:03:52;;;;;;;;;;;16.60;99.90;;;;;;5030533;28;19931;-62
2022/06/27 02:06:19;;;;;;;;;;;16.60;99.90;;;;;;5030343;28;19956;-61
2022/06/27 02:08:46;;;;;;;;;;;16.60;99.90;;;;;;5029645;28;19925;-62
2022/06/27 02:11:13;;;;;;;;;;;16.50;99.90;;;;;;5025886;28;19925;-62
2022/06/27 02:13:41;;;;;;;;;;;16.50;99.90;;;;;;5021458;28;19925;-62
2022/06/27 02:16:12;;;;;;;;;;;16.50;99.90;;;;;;5019544;28;19935;-62
2022/06/27 02:18:40;;;;;;;;;;;16.40;99.90;;;;;;5029381;28;20291;-63
2022/06/27 02:21:07;;;;;;;;;;;16.40;99.90;;;;;;5042657;28;19945;-62
2022/06/27 02:23:33;;;;;;;;;;;16.40;99.90;;;;;;5023126;28;19925;-62
2022/06/27 02:26:00;;;;;;;;;;;16.30;99.90;;;;;;5028277;28;19926;-62
2022/06/27 02:28:28;;;;;;;;;;;16.30;99.90;;;;;;5013320;28;20016;-62
2022/06/27 02:30:55;;;;;;;;;;;16.20;99.90;;;;;;5031626;28;19925;-63
2022/06/27 02:33:22;;;;;;;;;;;16.20;99.90;;;;;;5021661;28;19964;-63
2022/06/27 02:35:51;;;;;;;;;;;16.20;99.90;;;;;;5027866;28;19933;-63
2022/06/27 02:38:18;;;;;;;;;;;16.20;99.90;;;;;;5027761;28;19972;-63
2022/06/27 02:40:46;;;;;;;;;;;16.20;99.90;;;;;;5029492;28;20000;-63
2022/06/27 02:43:13;;;;;;;;;;;16.30;99.90;;;;;;5029217;28;19972;-63
2022/06/27 02:45:40;;;;;;;;;;;16.30;99.90;;;;;;5026293;28;19991;-63
2022/06/27 02:48:07;;;;;;;;;;;16.30;99.90;;;;;;5029680;28;19925;-63
2022/06/27 02:50:37;;;;;;;;;;;16.40;99.90;;;;;;5022357;28;19925;-63
2022/06/27 02:53:09;;;;;;;;;;;16.40;99.90;;;;;;5028771;28;19925;-62
2022/06/27 02:55:39;;;;;;;;;;;16.40;99.90;;;;;;5029473;28;19936;-62
2022/06/27 02:58:09;;;;;;;;;;;16.40;99.90;;;;;;5030370;28;19952;-62
2022/06/27 03:00:38;;;;;;;;;;;16.40;99.90;;;;;;5030583;28;19932;-62
2022/06/27 03:03:06;;;;;;;;;;;16.40;99.90;;;;;;5029718;28;19931;-62
2022/06/27 03:05:33;;;;;;;;;;;16.30;99.90;;;;;;5030292;28;19934;-62
2022/06/27 03:07:59;;;;;;;;;;;16.30;99.90;;;;;;5029709;28;20019;-62
2022/06/27 03:10:26;;;;;;;;;;;16.40;99.90;;;;;;5050199;28;19946;-63
2022/06/27 03:12:53;;;;;;;;;;;16.50;99.90;;;;;;5043827;28;19929;-62
2022/06/27 03:15:19;;;;;;;;;;;16.50;99.90;;;;;;5030637;28;19932;-61
2022/06/27 03:17:46;;;;;;;;;;;16.50;99.90;;;;;;5030320;28;19932;-62
2022/06/27 03:20:13;;;;;;;;;;;16.50;99.90;;;;;;5028315;28;19925;-62
2022/06/27 03:22:39;;;;;;;;;;;16.60;99.90;;;;;;5026494;28;19935;-62
2022/06/27 03:25:06;;;;;;;;;;;16.60;99.90;;;;;;5029169;28;19948;-62
2022/06/27 03:27:33;;;;;;;;;;;16.60;99.90;;;;;;5028434;28;19925;-62
2022/06/27 03:30:00;;;;;;;;;;;16.60;99.90;;;;;;5030145;28;19988;-62
2022/06/27 03:32:26;;;;;;;;;;;16.70;99.90;;;;;;5017172;28;19929;-62
2022/06/27 03:34:53;;;;;;;;;;;16.70;99.90;;;;;;5019045;28;19932;-62
2022/06/27 03:37:20;;;;;;;;;;;16.70;99.90;;;;;;5024659;28;19926;-62
2022/06/27 03:39:46;;;;;;;;;;;16.70;99.90;;;;;;5024322;28;20025;-62
2022/06/27 03:42:13;;;;;;;;;;;16.70;99.90;;;;;;5029739;28;19925;-63
2022/06/27 03:44:40;;;;;;;;;;;16.70;99.90;;;;;;5037217;28;20440;-63
2022/06/27 03:47:06;;;;;;;;;;;16.80;99.90;;;;;;5032513;28;19932;-62
2022/06/27 03:52:18;;;;;;;;;;;16.80;99.90;;;;;;5027154;28;20036;-62
2022/06/27 03:54:45;;;;;;;;;;;16.80;99.90;;;;;;5021753;28;19925;-62
2022/06/27 03:57:12;;;;;;;;;;;16.80;99.90;;;;;;5021126;28;19925;-62
2022/06/27 03:59:38;;;;;;;;;;;16.80;99.90;;;;;;5021250;28;19930;-62
2022/06/27 04:02:05;;;;;;;;;;;16.90;99.90;;;;;;5020248;28;19960;-63
2022/06/27 04:04:32;;;;;;;;;;;16.80;99.90;;;;;;5022081;28;19937;-63
2022/06/27 04:07:00;;;;;;;;;;;16.80;99.90;;;;;;5020878;28;19940;-63
2022/06/27 04:09:27;;;;;;;;;;;16.80;99.90;;;;;;5030561;28;19925;-63
2022/06/27 04:11:53;;;;;;;;;;;16.80;99.90;;;;;;5032692;28;20031;-63
2022/06/27 04:14:20;;;;;;;;;;;16.90;99.90;;;;;;5050690;28;19925;-63
2022/06/27 04:16:47;;;;;;;;;;;16.90;99.90;;;;;;5017158;28;19925;-62
2022/06/27 04:19:13;;;;;;;;;;;16.90;99.90;;;;;;5030356;28;19931;-63
2022/06/27 04:21:40;;;;;;;;;;;16.90;99.90;;;;;;4943160;28;25071;-62
2022/06/27 04:24:07;;;;;;;;;;;16.90;99.90;;;;;;4804044;28;29114;-62
2022/06/27 04:26:33;;;;;;;;;;;16.90;99.90;;;;;;5025895;28;25051;-63
2022/06/27 04:29:00;;;;;;;;;;;17.00;99.90;;;;;;5024308;28;19925;-63
2022/06/27 04:31:27;;;;;;;;;;;17.00;99.90;;;;;;5035296;28;19925;-63
2022/06/27 04:33:54;;;;;;;;;;;16.90;99.90;;;;;;5026984;28;19932;-63
2022/06/27 04:36:21;;;;;;;;;;;16.90;99.90;;;;;;5032064;28;19931;-63
2022/06/27 04:38:48;;;;;;;;;;;16.90;99.90;;;;;;5025951;28;19986;-63
2022/06/27 04:41:16;;;;;;;;;;;16.90;99.90;;;;;;5026046;28;19931;-63
2022/06/27 04:43:43;;;;;;;;;;;16.90;99.90;;;;;;5030703;28;20016;-63
2022/06/27 04:46:11;;;;;;;;;;;16.90;99.90;;;;;;5030275;28;20012;-63
2022/06/27 04:48:37;;;;;;;;;;;16.90;99.90;;;;;;5028885;28;20015;-63
2022/06/27 04:51:06;;;;;;;;;;;16.90;99.90;;;;;;5027914;28;19925;-63
2022/06/27 04:53:33;;;;;;;;;;;16.90;99.90;;;;;;5024354;28;19929;-63
2022/06/27 04:56:00;;;;;;;;;;;17.00;99.90;;;;;;5026413;28;20401;-63
2022/06/27 04:58:26;;;;;;;;;;;17.00;99.90;;;;;;5027366;28;20015;-63
2022/06/27 05:00:54;;;;;;;;;;;17.00;99.90;;;;;;5031256;28;20467;-63
2022/06/27 05:03:23;;;;;;;;;;;17.00;99.90;;;;;;5004279;28;20306;-63
2022/06/27 05:05:52;;;;;;;;;;;17.00;99.90;;;;;;5028005;28;19939;-63
2022/06/27 05:08:20;;;;;;;;;;;17.10;99.90;;;;;;5030437;28;19940;-63
2022/06/27 05:10:47;;;;;;;;;;;17.20;99.90;;;;;;5027561;28;19952;-64
2022/06/27 05:13:14;;;;;;;;;;;17.40;99.90;;;;;;5027597;28;19979;-64
2022/06/27 05:15:40;;;;;;;;;;;17.60;99.90;;;;;;5036199;28;19931;-63
2022/06/27 05:18:07;;;;;;;;;;;17.60;99.90;;;;;;5029648;28;19931;-66
2022/06/27 05:20:34;;;;;;;;;;;17.60;99.90;;;;;;5028774;28;19925;-64
2022/06/27 05:23:01;;;;;;;;;;;17.60;99.90;;;;;;5040756;28;19933;-63
2022/06/27 05:25:28;;;;;;;;;;;17.70;99.90;;;;;;5027001;28;20016;-63
2022/06/27 05:27:56;;;;;;;;;;;17.80;99.90;;;;;;5011928;28;19969;-63
2022/06/27 05:30:22;;;;;;;;;;;17.70;99.90;;;;;;5017362;28;19971;-63
2022/06/27 05:32:49;;;;;;;;;;;17.80;99.90;;;;;;4835263;28;26246;-63
2022/06/27 05:35:16;;;;;;;;;;;18.00;99.90;;;;;;4817658;28;32400;-63
2022/06/27 05:37:43;;;;;;;;;;;18.10;99.90;;;;;;4828989;28;31114;-63
2022/06/27 05:40:10;;;;;;;;;;;18.20;99.90;;;;;;4813858;28;25188;-64
2022/06/27 05:42:37;;;;;;;;;;;18.30;99.90;;;;;;4868668;28;25107;-63
2022/06/27 05:45:04;;;;;;;;;;;18.30;99.90;;;;;;4921935;28;28131;-63
2022/06/27 05:47:31;;;;;;;;;;;18.40;99.90;;;;;;4818677;28;34143;-63
2022/06/27 05:49:59;;;;;;;;;;;18.40;99.90;;;;;;4986522;28;28103;-63
2022/06/27 05:52:28;;;;;;;;;;;18.40;99.90;;;;;;4814741;28;38179;-64
2022/06/27 05:54:55;;;;;;;;;;;18.40;99.90;;;;;;4823322;28;30300;-63
2022/06/27 05:57:24;;;;;;;;;;;18.60;99.90;;;;;;4947592;28;25135;-64
2022/06/27 05:59:53;;;;;;;;;;;19.20;99.90;;;;;;4986989;28;25057;-63
2022/06/27 06:02:21;;;;;;;;;;;19.80;99.90;;;;;;4846454;28;25107;-63
2022/06/27 06:04:48;;;;;;;;;;;20.00;99.90;;;;;;4858802;28;30250;-64
2022/06/27 06:07:14;;;;;;;;;;;19.80;99.90;;;;;;4866392;28;32224;-64
2022/06/27 06:09:41;;;;;;;;;;;19.60;99.90;;;;;;4946700;28;25073;-64
2022/06/27 06:12:09;;;;;;;;;;;19.50;99.90;;;;;;5020332;28;25056;-64
2022/06/27 06:14:43;;;;;;;;;;;19.40;99.90;;;;;;5008825;28;25059;-64
2022/06/27 06:17:09;;;;;;;;;;;19.40;99.90;;;;;;4990419;28;25079;-64
2022/06/27 06:19:36;;;;;;;;;;;19.50;99.90;;;;;;4861852;28;30098;-64
2022/06/27 06:22:03;;;;;;;;;;;19.60;99.90;;;;;;4858298;28;31092;-64
2022/06/27 06:24:31;;;;;;;;;;;19.60;99.90;;;;;;4884255;28;25080;-64
2022/06/27 06:27:02;;;;;;;;;;;19.70;99.90;;;;;;4843239;28;33236;-64
2022/06/27 06:29:29;;;;;;;;;;;19.70;99.90;;;;;;4852162;28;30137;-64
2022/06/27 06:31:56;;;;;;;;;;;19.60;99.90;;;;;;4856196;28;29117;-64
2022/06/27 06:34:31;;;;;;;;;;;19.70;99.90;;;;;;4942403;28;29107;-64
2022/06/27 06:36:58;;;;;;;;;;;19.90;99.90;;;;;;4973848;28;25124;-64
2022/06/27 06:39:24;;;;;;;;;;;20.10;99.90;;;;;;4886322;28;29244;-64
2022/06/27 06:41:52;;;;;;;;;;;20.30;99.90;;;;;;4847486;28;31143;-64
2022/06/27 06:44:19;;;;;;;;;;;20.40;99.90;;;;;;4835106;28;35189;-64
2022/06/27 06:46:46;;;;;;;;;;;20.50;99.90;;;;;;4842956;28;30083;-64
2022/06/27 06:49:13;;;;;;;;;;;20.70;99.90;;;;;;4841685;28;52106;-65
2022/06/27 06:51:42;;;;;;;;;;;20.80;99.90;;;;;;4836501;28;46110;-64
2022/06/27 06:54:12;;;;;;;;;;;20.90;99.90;;;;;;4854818;28;33083;-64
2022/06/27 06:56:39;;;;;;;;;;;21.10;99.90;;;;;;4853212;28;29088;-64
2022/06/27 06:59:07;;;;;;;;;;;21.30;99.90;;;;;;4829264;28;50162;-64
2022/06/27 07:01:35;;;;;;;;;;;21.50;99.90;;;;;;4849951;28;34066;-65
2022/06/27 07:04:02;;;;;;;;;;;22.00;99.90;;;;;;4873488;28;56113;-65
2022/06/27 07:06:30;;;;;;;;;;;23.40;99.90;;;;;;4856727;28;42106;-64
2022/06/27 07:08:58;;;;;;;;;;;24.30;99.90;;;;;;4865307;28;37162;-65
2022/06/27 07:11:27;;;;;;;;;;;24.70;99.90;;;;;;4934620;28;59081;-64
2022/06/27 07:13:55;;;;;;;;;;;24.70;99.90;;;;;;4861319;28;62151;-65
2022/06/27 07:16:23;;;;;;;;;;;24.60;99.90;;;;;;4879993;28;52119;-65
2022/06/27 07:18:51;;;;;;;;;;;24.30;99.90;;;;;;4919160;28;31083;-65
2022/06/27 07:21:18;;;;;;;;;;;23.90;99.90;;;;;;4919015;28;75275;-65
2022/06/27 07:23:49;;;;;;;;;;;23.70;99.90;;;;;;5028547;28;19925;-64
2022/06/27 07:26:17;;;;;;;;;;;23.40;99.90;;;;;;5033852;28;19936;-65
2022/06/27 07:28:44;;;;;;;;;;;22.80;99.90;;;;;;5018846;28;19932;-65
2022/06/27 07:31:12;;;;;;;;;;;22.60;99.90;;;;;;5035624;28;19932;-64
2022/06/27 07:33:41;;;;;;;;;;;22.60;99.90;;;;;;5031836;28;20096;-63
2022/06/27 07:36:18;;;;;;;;;;;22.50;99.90;;;;;;4988749;28;62167;-63
2022/06/27 07:38:46;;;;;;;;;;;22.70;99.90;;;;;;4854156;28;99176;-64
2022/06/27 07:41:15;;;;;;;;;;;22.50;99.90;;;;;;4830975;28;166165;-64
2022/06/27 07:43:43;;;;;;;;;;;22.40;99.90;;;;;;4842808;28;139160;-64
2022/06/27 07:46:10;;;;;;;;;;;22.00;99.90;;;;;;4850770;28;92142;-64
2022/06/27 07:48:37;;;;;;;;;;;22.00;99.90;;;;;;4851898;28;80183;-64
2022/06/27 07:51:04;;;;;;;;;;;22.00;99.90;;;;;;4856568;28;172179;-65
2022/06/27 07:53:32;;;;;;;;;;;22.20;99.90;;;;;;4888383;28;92163;-65
2022/06/27 07:56:06;;;;;;;;;;;22.10;99.90;;;;;;4897669;28;118148;-64
2022/06/27 07:58:35;;;;;;;;;;;22.40;99.90;;;;;;4877140;28;113139;-64
2022/06/27 08:01:03;;;;;;;;;;;22.70;99.90;;;;;;4883355;28;123156;-65
2022/06/27 08:03:38;;;;;;;;;;;23.30;99.90;;;;;;4878474;28;117172;-64
2022/06/27 08:06:09;;;;;;;;;;;23.80;99.90;;;;;;4900196;28;186175;-64
2022/06/27 08:08:37;;;;;;;;;;;24.10;99.90;;;;;;4881224;28;148197;-64
2022/06/27 08:11:04;;;;;;;;;;;24.10;99.90;;;;;;4872596;28;137190;-64
2022/06/27 08:13:31;;;;;;;;;;;24.30;99.90;;;;;;4864131;28;117086;-63
2022/06/27 08:15:59;;;;;;;;;;;24.40;99.90;;;;;;4866373;28;111168;-63
2022/06/27 08:18:31;;;;;;;;;;;24.50;99.90;;;;;;4881442;28;199151;-64
2022/06/27 08:20:59;;;;;;;;;;;24.50;99.90;;;;;;4883376;28;91167;-64
2022/06/27 08:23:26;;;;;;;;;;;24.20;99.90;;;;;;4895561;28;25075;-64
2022/06/27 08:25:53;;;;;;;;;;;23.80;99.90;;;;;;4838619;28;103178;-63
2022/06/27 08:28:25;;;;;;;;;;;23.50;99.90;;;;;;4883453;28;109179;-63
2022/06/27 08:30:52;;;;;;;;;;;23.60;99.90;;;;;;4912998;28;33135;-64
2022/06/27 08:33:19;;;;;;;;;;;23.90;99.90;;;;;;4912604;28;51161;-64
2022/06/27 08:35:47;;;;;;;;;;;24.10;99.90;;;;;;4925046;28;38110;-64
2022/06/27 08:38:18;;;;;;;;;;;24.10;99.90;;;;;;4920984;28;76151;-64
2022/06/27 08:40:46;;;;;;;;;;;24.30;99.90;;;;;;4894785;28;41123;-64
2022/06/27 08:43:13;;;;;;;;;;;24.40;99.90;;;;;;4892162;28;41161;-64
2022/06/27 08:45:41;;;;;;;;;;;24.40;99.90;;;;;;4912472;28;54112;-64
2022/06/27 08:48:07;;;;;;;;;;;24.10;99.90;;;;;;4892660;28;65095;-64
2022/06/27 08:50:35;;;;;;;;;;;24.00;99.90;;;;;;4894606;28;76110;-65
2022/06/27 08:53:05;;;;;;;;;;;23.90;99.90;;;;;;4897923;28;52094;-65
2022/06/27 08:55:35;;;;;;;;;;;23.70;99.90;;;;;;4901194;28;52116;-65
2022/06/27 08:58:10;;;;;;;;;;;24.00;99.90;;;;;;4907871;28;51181;-65
2022/06/27 09:00:40;;;;;;;;;;;24.50;99.90;;;;;;4931412;28;25119;-65
2022/06/27 09:03:08;;;;;;;;;;;25.70;99.90;;;;;;5030514;28;19931;-66
2022/06/27 09:05:35;;;;;;;;;;;27.40;99.90;;;;;;5036124;28;20004;-65
2022/06/27 09:08:03;;;;;;;;;;;28.00;99.90;;;;;;5032186;28;20008;-65
2022/06/27 09:10:36;;;;;;;;;;;28.40;99.90;;;;;;5035807;28;19933;-65
2022/06/27 09:13:29;;;;;;;;;;;29.00;99.90;;;;;;5015878;28;20023;-65
2022/06/27 09:15:58;;;;;;;;;;;29.30;99.90;;;;;;5025945;28;19931;-66
2022/06/27 09:18:27;;;;;;;;;;;29.80;99.90;;;;;;5037659;28;20011;-63
2022/06/27 09:21:13;;;;;;;;;;;30.10;99.90;;;;;;5021279;28;19929;-63
2022/06/27 09:23:49;;;;;;;;;;;30.10;99.90;;;;;;5021156;28;20395;-64
2022/06/27 09:26:21;;;;;;;;;;;30.20;99.90;;;;;;5025528;28;19931;-63
2022/06/27 09:28:53;;;;;;;;;;;30.60;99.90;;;;;;5037987;28;19925;-64
2022/06/27 09:31:24;;;;;;;;;;;30.50;99.90;;;;;;5031658;28;20431;-64
2022/06/27 09:34:19;;;;;;;;;;;30.30;99.90;;;;;;5028584;28;19945;-63
2022/06/27 09:36:49;;;;;;;;;;;29.70;99.90;;;;;;4981390;28;25082;-64
2022/06/27 09:39:18;;;;;;;;;;;29.80;99.90;;;;;;4904752;28;80158;-64
2022/06/27 09:41:54;;;;;;;;;;;30.20;99.90;;;;;;4978567;28;25141;-64
2022/06/27 09:44:22;;;;;;;;;;;30.60;99.90;;;;;;5030802;28;19929;-64
2022/06/27 09:46:51;;;;;;;;;;;30.40;99.90;;;;;;5029804;28;20325;-64
2022/06/27 09:49:19;;;;;;;;;;;30.50;99.90;;;;;;5029782;28;20028;-64
2022/06/27 09:51:49;;;;;;;;;;;30.70;99.90;;;;;;4967092;28;102168;-64
2022/06/27 09:54:20;;;;;;;;;;;31.40;99.90;;;;;;4907765;28;30087;-64
2022/06/27 09:56:48;;;;;;;;;;;31.70;99.90;;;;;;4970937;28;25160;-64
2022/06/27 09:59:16;;;;;;;;;;;31.60;99.90;;;;;;5011671;28;19948;-64
2022/06/27 10:01:43;;;;;;;;;;;31.90;99.90;;;;;;5017614;28;20349;-64
2022/06/27 10:04:10;;;;;;;;;;;31.60;99.90;;;;;;5024435;28;19929;-64
2022/06/27 10:06:39;;;;;;;;;;;31.00;99.90;;;;;;5017671;28;19976;-65
2022/06/27 10:09:08;;;;;;;;;;;31.00;99.90;;;;;;5012036;28;20317;-64
2022/06/27 10:11:37;;;;;;;;;;;31.60;99.90;;;;;;5010937;28;20215;-64
2022/06/27 10:14:19;;;;;;;;;;;33.30;99.90;;;;;;5010844;28;19925;-65
2022/06/27 10:16:55;;;;;;;;;;;33.60;99.90;;;;;;5031133;28;19925;-65
2022/06/27 10:19:26;;;;;;;;;;;33.20;99.90;;;;;;4990732;28;29063;-65
2022/06/27 10:21:54;;;;;;;;;;;32.50;99.90;;;;;;4941599;28;27091;-65
2022/06/27 10:24:31;;;;;;;;;;;31.50;99.90;;;;;;4945019;28;28084;-65
2022/06/27 10:27:02;;;;;;;;;;;31.20;99.90;;;;;;4949595;28;25072;-65
2022/06/27 10:29:47;;;;;;;;;;;31.80;99.90;;;;;;4939929;28;29178;-65
2022/06/27 10:32:32;;;;;;;;;;;31.40;99.90;;;;;;4942533;28;27120;-64
2022/06/27 10:35:04;;;;;;;;;;;29.90;99.90;;;;;;4931332;28;25141;-65
2022/06/27 10:37:38;;;;;;;;;;;28.30;99.90;;;;;;4936664;28;36180;-64
2022/06/27 10:40:17;;;;;;;;;;;27.10;99.90;;;;;;4934600;28;27120;-64
2022/06/27 10:42:47;;;;;;;;;;;26.20;99.90;;;;;;4945422;28;27070;-65
2022/06/27 10:45:20;;;;;;;;;;;25.50;99.90;;;;;;4934760;28;27059;-64
2022/06/27 10:47:47;;;;;;;;;;;24.50;99.90;;;;;;4921780;28;26073;-65
2022/06/27 10:50:16;;;;;;;;;;;23.90;99.90;;;;;;4922039;28;28104;-65
2022/06/27 10:52:44;;;;;;;;;;;23.60;99.90;;;;;;4931399;28;27068;-64
2022/06/27 10:55:29;;;;;;;;;;;23.50;99.90;;;;;;4938624;28;26088;-64
2022/06/27 10:57:56;;;;;;;;;;;23.60;99.90;;;;;;4936107;28;26091;-65
2022/06/27 11:00:41;;;;;;;;;;;24.00;99.90;;;;;;4949787;28;25056;-65
2022/06/27 11:03:25;;;;;;;;;;;24.50;99.90;;;;;;4934147;28;25143;-65
2022/06/27 11:06:00;;;;;;;;;;;25.20;99.90;;;;;;4955084;28;27120;-65
2022/06/27 11:08:27;;;;;;;;;;;25.90;99.90;;;;;;4952722;28;29068;-66
2022/06/27 11:10:53;;;;;;;;;;;26.30;99.90;;;;;;4945478;28;29080;-65
2022/06/27 11:13:37;;;;;;;;;;;26.40;99.90;;;;;;4946464;28;26060;-66
2022/06/27 11:16:05;;;;;;;;;;;26.90;99.90;;;;;;4943311;28;28066;-66
2022/06/27 11:18:41;;;;;;;;;;;27.90;99.90;;;;;;4948889;28;28098;-66
2022/06/27 11:21:09;;;;;;;;;;;28.80;99.90;;;;;;4949020;28;28093;-66
2022/06/27 11:23:54;;;;;;;;;;;29.20;99.90;;;;;;4948343;28;28084;-66
2022/06/27 11:26:22;;;;;;;;;;;29.20;99.90;;;;;;4947081;28;25071;-66
2022/06/27 11:34:26;;;;;;;;;;;29.30;99.90;;;;;;4948744;28;25105;-67
2022/06/27 11:36:54;;;;;;;;;;;29.00;99.90;;;;;;4939677;28;28086;-66
2022/06/27 11:39:24;;;;;;;;;;;28.40;99.90;;;;;;4941234;28;82170;-66
2022/06/27 11:41:56;;;;;;;;;;;28.70;99.90;;;;;;4941108;28;25096;-66
2022/06/27 11:44:23;;;;;;;;;;;28.60;99.90;;;;;;4943311;28;26076;-66
2022/06/27 11:46:52;;;;;;;;;;;28.50;99.90;;;;;;4974871;28;27109;-65
2022/06/27 11:49:28;;;;;;;;;;;28.50;99.90;;;;;;4942144;28;29101;-66
2022/06/27 11:52:03;;;;;;;;;;;28.50;99.90;;;;;;4937545;28;27061;-65
2022/06/27 11:54:56;;;;;;;;;;;28.50;99.90;;;;;;4954360;28;28143;-66
2022/06/27 11:57:27;;;;;;;;;;;28.90;99.90;;;;;;4953110;28;29132;-66
2022/06/27 11:59:55;;;;;;;;;;;28.80;99.90;;;;;;4949808;28;25074;-66
2022/06/27 12:02:26;;;;;;;;;;;28.30;99.90;;;;;;4935600;28;26086;-65
2022/06/27 12:05:10;;;;;;;;;;;27.70;99.90;;;;;;4942034;28;28128;-66
2022/06/27 12:07:56;;;;;;;;;;;27.30;99.90;;;;;;4935791;28;26136;-65
2022/06/27 12:10:35;;;;;;;;;;;26.90;99.90;;;;;;4947686;28;27138;-66
2022/06/27 12:13:06;;;;;;;;;;;26.80;99.90;;;;;;4938865;28;29219;-66
2022/06/27 12:15:34;;;;;;;;;;;26.90;99.90;;;;;;4940406;28;25179;-66
2022/06/27 12:18:01;;;;;;;;;;;26.90;99.90;;;;;;4942689;28;29192;-65
2022/06/27 12:20:29;;;;;;;;;;;27.10;99.90;;;;;;5023885;28;19929;-66
2022/06/27 12:22:56;;;;;;;;;;;27.40;99.90;;;;;;5029615;28;19929;-65
2022/06/27 12:25:24;;;;;;;;;;;27.60;99.90;;;;;;5026076;28;20027;-66
2022/06/27 12:27:50;;;;;;;;;;;27.30;99.90;;;;;;5042311;28;20023;-65
2022/06/27 12:30:17;;;;;;;;;;;27.20;99.90;;;;;;5030822;28;20007;-65
2022/06/27 12:32:44;;;;;;;;;;;26.90;99.90;;;;;;5035161;28;20537;-65
2022/06/27 12:35:11;;;;;;;;;;;26.60;99.90;;;;;;5028203;28;20393;-66
2022/06/27 12:37:40;;;;;;;;;;;26.20;99.90;;;;;;5025052;28;19935;-65
2022/06/27 12:40:08;;;;;;;;;;;25.80;99.90;;;;;;5020548;28;19929;-65
2022/06/27 12:42:34;;;;;;;;;;;25.20;99.90;;;;;;5022723;28;19969;-64
2022/06/27 12:45:05;;;;;;;;;;;24.50;99.90;;;;;;4964967;28;31105;-66
2022/06/27 12:47:35;;;;;;;;;;;24.30;99.90;;;;;;4927191;28;28100;-65
2022/06/27 12:50:02;;;;;;;;;;;24.40;99.90;;;;;;4934203;28;29131;-66
2022/06/27 12:52:28;;;;;;;;;;;24.60;99.90;;;;;;4944619;28;28115;-66
2022/06/27 12:54:55;;;;;;;;;;;25.20;99.90;;;;;;4934243;28;29048;-66
2022/06/27 12:57:22;;;;;;;;;;;26.40;99.90;;;;;;4930086;28;36159;-65
2022/06/27 12:59:48;;;;;;;;;;;27.10;99.90;;;;;;4927216;28;26077;-65
2022/06/27 13:02:16;;;;;;;;;;;27.00;99.90;;;;;;4923495;28;33108;-65
2022/06/27 13:04:43;;;;;;;;;;;27.20;99.90;;;;;;4913640;28;38067;-66
2022/06/27 13:07:10;;;;;;;;;;;27.10;99.90;;;;;;4920895;28;30168;-65
2022/06/27 13:09:37;;;;;;;;;;;27.10;99.90;;;;;;4928260;28;29126;-65
2022/06/27 13:12:04;;;;;;;;;;;27.20;99.90;;;;;;4926016;28;29070;-65
2022/06/27 13:14:32;;;;;;;;;;;27.40;99.90;;;;;;4926424;28;32060;-65
2022/06/27 13:17:02;;;;;;;;;;;27.40;99.90;;;;;;4934522;28;28077;-65
2022/06/27 13:19:29;;;;;;;;;;;27.50;99.90;;;;;;4938977;28;30112;-66
2022/06/27 13:21:56;;;;;;;;;;;27.80;99.90;;;;;;4939863;28;28073;-66
2022/06/27 13:24:23;;;;;;;;;;;27.90;99.90;;;;;;4944610;28;26140;-66
2022/06/27 13:26:53;;;;;;;;;;;28.20;99.90;;;;;;4941213;28;25079;-66
2022/06/27 13:29:21;;;;;;;;;;;28.30;99.90;;;;;;4939887;28;26157;-65
2022/06/27 13:31:54;;;;;;;;;;;28.20;99.90;;;;;;4942366;28;32214;-66
2022/06/27 13:34:21;;;;;;;;;;;28.30;99.90;;;;;;4950901;28;29066;-66
2022/06/27 13:37:08;;;;;;;;;;;28.30;99.90;;;;;;4944730;28;30053;-66
2022/06/27 13:39:35;;;;;;;;;;;27.90;99.90;;;;;;4939063;28;29144;-66
2022/06/27 13:42:03;;;;;;;;;;;27.90;99.90;;;;;;4940417;28;26093;-66
2022/06/27 13:44:32;;;;;;;;;;;27.90;99.90;;;;;;4919606;28;26063;-65
2022/06/27 13:47:00;;;;;;;;;;;28.20;99.90;;;;;;4939089;28;29010;-66
2022/06/27 13:49:26;;;;;;;;;;;28.80;99.90;;;;;;4952948;28;28109;-65
2022/06/27 13:51:53;;;;;;;;;;;29.30;99.90;;;;;;4998503;28;25064;-66
2022/06/27 13:54:20;;;;;;;;;;;29.30;99.90;;;;;;5030162;28;19933;-66
2022/06/27 13:56:46;;;;;;;;;;;28.80;99.90;;;;;;4981976;28;27130;-65
2022/06/27 13:59:13;;;;;;;;;;;28.30;99.90;;;;;;4936998;28;28095;-67
2022/06/27 14:01:41;;;;;;;;;;;28.20;99.90;;;;;;4941558;28;25053;-65
2022/06/27 14:04:07;;;;;;;;;;;28.30;99.90;;;;;;4936847;28;31070;-65
2022/06/27 14:09:20;;;;;;;;;;;28.90;99.90;;;;;;5006580;28;29140;-64
2022/06/27 14:11:46;;;;;;;;;;;28.60;99.90;;;;;;5027010;28;19924;-64
2022/06/27 14:14:13;;;;;;;;;;;28.80;99.90;;;;;;5007874;28;19929;-64
2022/06/27 14:16:40;;;;;;;;;;;29.00;99.90;;;;;;5022775;28;19971;-65
2022/06/27 14:19:07;;;;;;;;;;;29.20;99.90;;;;;;5025628;28;20511;-64
2022/06/27 14:21:40;;;;;;;;;;;29.60;99.90;;;;;;5024301;28;20493;-64
2022/06/27 14:24:07;;;;;;;;;;;29.50;99.90;;;;;;5020545;28;20399;-64
2022/06/27 14:26:37;;;;;;;;;;;29.60;99.90;;;;;;5023085;28;19932;-64
2022/06/27 14:29:04;;;;;;;;;;;29.20;99.90;;;;;;5022632;28;19996;-64
2022/06/27 14:31:30;;;;;;;;;;;29.00;99.90;;;;;;5036608;28;20023;-67
2022/06/27 14:33:58;;;;;;;;;;;29.50;99.90;;;;;;5012974;28;19932;-64
2022/06/27 14:36:26;;;;;;;;;;;30.80;99.90;;;;;;5030235;28;19925;-66